Airport View

Enter AWOS ICAO identifier for current METAR.

ex. KFNL

KFNL 251633Z 36013KT 3/4SM -SN BR OVC011 M10/M12 A3024 RMK AO2 TWR VIS 2 P0000 FZRANO

25 Oct 2020 16:50

Frequency: 135.075

Phone: 970-669-9187

Other Area AWOS: KGXY - KLMO - KEIK - KBDU

TAF KBJC 251120Z 2512/2612 01010KT 3SM -SN BR OVC008 FM251300 36012G18KT 2SM -SN BR OVC008 FM251700 36010KT 1SM -SN BR OVC006 TEMPO 2520/2524 1/2SM SN VV002 FM261000 02008KT 2SM -SN BR BKN008 OVC012